sensor_id;sensor_type;location;lat;lon;timestamp;pressure;altitude;pressure_sealevel;temperature;humidity
23363;BME280;11853;48.080;11.960;2023-04-01T00:00:21;93591.72;;;8.63;97.92
23363;BME280;11853;48.080;11.960;2023-04-01T00:02:47;93589.41;;;8.60;98.50
23363;BME280;11853;48.080;11.960;2023-04-01T00:05:13;93573.50;;;8.68;97.75
23363;BME280;11853;48.080;11.960;2023-04-01T00:07:40;93584.25;;;8.67;98.28
23363;BME280;11853;48.080;11.960;2023-04-01T00:10:07;93584.59;;;8.64;99.20
23363;BME280;11853;48.080;11.960;2023-04-01T00:12:34;93567.78;;;8.56;99.09
23363;BME280;11853;48.080;11.960;2023-04-01T00:15:04;93572.06;;;8.57;98.95
23363;BME280;11853;48.080;11.960;2023-04-01T00:17:30;93579.19;;;8.57;98.06
23363;BME280;11853;48.080;11.960;2023-04-01T00:19:56;93584.16;;;8.52;99.43
23363;BME280;11853;48.080;11.960;2023-04-01T00:22:22;93579.22;;;8.49;98.63
23363;BME280;11853;48.080;11.960;2023-04-01T00:24:48;93582.19;;;8.46;99.52
23363;BME280;11853;48.080;11.960;2023-04-01T00:27:14;93585.31;;;8.49;99.57
23363;BME280;11853;48.080;11.960;2023-04-01T00:29:44;93578.91;;;8.44;100.00
23363;BME280;11853;48.080;11.960;2023-04-01T00:32:10;93584.84;;;8.46;100.00
23363;BME280;11853;48.080;11.960;2023-04-01T00:34:36;93583.91;;;8.39;100.00
23363;BME280;11853;48.080;11.960;2023-04-01T00:37:03;93577.91;;;8.37;100.00
23363;BME280;11853;48.080;11.960;2023-04-01T00:39:33;93575.28;;;8.45;100.00
23363;BME280;11853;48.080;11.960;2023-04-01T00:42:00;93569.81;;;8.38;100.00
23363;BME280;11853;48.080;11.960;2023-04-01T00:44:31;93569.34;;;8.34;100.00
23363;BME280;11853;48.080;11.960;2023-04-01T00:46:58;93570.00;;;8.37;100.00
23363;BME280;11853;48.080;11.960;2023-04-01T00:49:28;93576.28;;;8.35;100.00
23363;BME280;11853;48.080;11.960;2023-04-01T00:51:57;93583.19;;;8.37;100.00
23363;BME280;11853;48.080;11.960;2023-04-01T00:54:27;93579.25;;;8.41;100.00
23363;BME280;11853;48.080;11.960;2023-04-01T00:57:03;93575.63;;;8.42;100.00
23363;BME280;11853;48.080;11.960;2023-04-01T00:59:39;93581.25;;;8.39;100.00
23363;BME280;11853;48.080;11.960;2023-04-01T01:02:08;93567.34;;;8.37;100.00
23363;BME280;11853;48.080;11.960;2023-04-01T01:04:35;93567.69;;;8.33;100.00
23363;BME280;11853;48.080;11.960;2023-04-01T01:07:41;93561.41;;;8.34;100.00
23363;BME280;11853;48.080;11.960;2023-04-01T01:10:18;93569.69;;;8.31;100.00
23363;BME280;11853;48.080;11.960;2023-04-01T01:15:26;93568.03;;;8.30;100.00
23363;BME280;11853;48.080;11.960;2023-04-01T01:23:15;93568.34;;;8.35;100.00
23363;BME280;11853;48.080;11.960;2023-04-01T01:28:47;93557.59;;;8.37;100.00
23363;BME280;11853;48.080;11.960;2023-04-01T01:31:24;93556.47;;;8.40;100.00
23363;BME280;11853;48.080;11.960;2023-04-01T01:34:13;93563.03;;;8.44;100.00
23363;BME280;11853;48.080;11.960;2023-04-01T01:36:43;93560.59;;;8.42;99.63
23363;BME280;11853;48.080;11.960;2023-04-01T01:39:12;93567.66;;;8.50;99.98
23363;BME280;11853;48.080;11.960;2023-04-01T01:41:46;93560.13;;;8.39;100.00
23363;BME280;11853;48.080;11.960;2023-04-01T01:44:16;93567.03;;;8.40;100.00
23363;BME280;11853;48.080;11.960;2023-04-01T01:46:43;93559.94;;;8.40;99.67
23363;BME280;11853;48.080;11.960;2023-04-01T01:49:11;93567.34;;;8.45;100.00
23363;BME280;11853;48.080;11.960;2023-04-01T01:51:39;93559.06;;;8.48;98.62
23363;BME280;11853;48.080;11.960;2023-04-01T01:54:05;93565.03;;;8.50;99.62
23363;BME280;11853;48.080;11.960;2023-04-01T01:56:32;93566.47;;;8.52;99.28
23363;BME280;11853;48.080;11.960;2023-04-01T01:59:03;93561.19;;;8.52;98.05
23363;BME280;11853;48.080;11.960;2023-04-01T02:01:33;93562.06;;;8.45;98.74
23363;BME280;11853;48.080;11.960;2023-04-01T02:04:02;93561.72;;;8.48;98.94
23363;BME280;11853;48.080;11.960;2023-04-01T02:06:32;93554.13;;;8.45;99.14
23363;BME280;11853;48.080;11.960;2023-04-01T02:09:05;93562.38;;;8.50;99.50
23363;BME280;11853;48.080;11.960;2023-04-01T02:11:45;93559.91;;;8.48;99.79
23363;BME280;11853;48.080;11.960;2023-04-01T02:14:29;93560.59;;;8.42;100.00
23363;BME280;11853;48.080;11.960;2023-04-01T02:17:11;93561.75;;;8.40;100.00
23363;BME280;11853;48.080;11.960;2023-04-01T02:19:39;93561.41;;;8.43;99.90
23363;BME280;11853;48.080;11.960;2023-04-01T02:22:10;93568.31;;;8.44;99.59
23363;BME280;11853;48.080;11.960;2023-04-01T02:24:37;93565.88;;;8.42;100.00
23363;BME280;11853;48.080;11.960;2023-04-01T02:27:05;93582.53;;;8.43;100.00
23363;BME280;11853;48.080;11.960;2023-04-01T02:29:31;93575.09;;;8.46;99.77
23363;BME280;11853;48.080;11.960;2023-04-01T02:32:02;93569.69;;;8.40;100.00
23363;BME280;11853;48.080;11.960;2023-04-01T02:34:29;93576.09;;;8.45;100.00
23363;BME280;11853;48.080;11.960;2023-04-01T02:36:55;93582.06;;;8.39;99.45
23363;BME280;11853;48.080;11.960;2023-04-01T02:39:22;93572.78;;;8.43;99.97
23363;BME280;11853;48.080;11.960;2023-04-01T02:41:48;93578.91;;;8.44;99.89
23363;BME280;11853;48.080;11.960;2023-04-01T02:44:15;93578.28;;;8.42;99.43
23363;BME280;11853;48.080;11.960;2023-04-01T02:46:41;93580.91;;;8.42;100.00
23363;BME280;11853;48.080;11.960;2023-04-01T02:49:07;93585.03;;;8.44;99.42
23363;BME280;11853;48.080;11.960;2023-04-01T02:51:33;93581.88;;;8.41;100.00
23363;BME280;11853;48.080;11.960;2023-04-01T02:53:58;93575.63;;;8.42;99.28
23363;BME280;11853;48.080;11.960;2023-04-01T02:56:24;93587.00;;;8.42;99.44
23363;BME280;11853;48.080;11.960;2023-04-01T02:58:52;93588.19;;;8.40;98.63
23363;BME280;11853;48.080;11.960;2023-04-01T03:01:18;93590.00;;;8.39;99.46
23363;BME280;11853;48.080;11.960;2023-04-01T03:03:43;93597.09;;;8.39;100.00
23363;BME280;11853;48.080;11.960;2023-04-01T03:06:12;93600.22;;;8.42;99.14
23363;BME280;11853;48.080;11.960;2023-04-01T03:08:38;93611.13;;;8.47;99.00
23363;BME280;11853;48.080;11.960;2023-04-01T03:11:04;93607.31;;;8.50;99.15
23363;BME280;11853;48.080;11.960;2023-04-01T03:13:30;93603.53;;;8.44;98.64
23363;BME280;11853;48.080;11.960;2023-04-01T03:15:56;93615.41;;;8.48;99.70
23363;BME280;11853;48.080;11.960;2023-04-01T03:18:22;93595.06;;;8.49;99.32
23363;BME280;11853;48.080;11.960;2023-04-01T03:20:47;93602.03;;;8.50;98.09
23363;BME280;11853;48.080;11.960;2023-04-01T03:23:13;93613.25;;;8.44;98.55
23363;BME280;11853;48.080;11.960;2023-04-01T03:25:39;93615.06;;;8.43;98.49
23363;BME280;11853;48.080;11.960;2023-04-01T03:28:05;93612.91;;;8.47;98.30
23363;BME280;11853;48.080;11.960;2023-04-01T03:30:30;93602.88;;;8.42;99.07
23363;BME280;11853;48.080;11.960;2023-04-01T03:32:57;93612.63;;;8.42;98.23
23363;BME280;11853;48.080;11.960;2023-04-01T03:35:25;93617.38;;;8.38;98.68
23363;BME280;11853;48.080;11.960;2023-04-01T03:37:51;93620.88;;;8.39;98.84
23363;BME280;11853;48.080;11.960;2023-04-01T03:40:17;93619.06;;;8.39;99.04
23363;BME280;11853;48.080;11.960;2023-04-01T03:42:54;93617.38;;;8.38;99.19
23363;BME280;11853;48.080;11.960;2023-04-01T03:45:21;93613.91;;;8.38;98.83
23363;BME280;11853;48.080;11.960;2023-04-01T03:47:46;93612.97;;;8.39;98.57
23363;BME280;11853;48.080;11.960;2023-04-01T03:50:12;93627.63;;;8.41;98.07
23363;BME280;11853;48.080;11.960;2023-04-01T03:52:38;93623.66;;;8.37;97.85
23363;BME280;11853;48.080;11.960;2023-04-01T03:55:04;93627.66;;;8.33;99.16
23363;BME280;11853;48.080;11.960;2023-04-01T03:57:32;93623.84;;;8.35;97.88
23363;BME280;11853;48.080;11.960;2023-04-01T03:59:58;93632.75;;;8.34;98.20
23363;BME280;11853;48.080;11.960;2023-04-01T04:02:23;93628.13;;;8.28;98.27
23363;BME280;11853;48.080;11.960;2023-04-01T04:04:49;93624.34;;;8.23;98.17
23363;BME280;11853;48.080;11.960;2023-04-01T04:07:14;93638.56;;;8.22;98.56
23363;BME280;11853;48.080;11.960;2023-04-01T04:09:40;93628.34;;;8.19;98.88
23363;BME280;11853;48.080;11.960;2023-04-01T04:12:06;93636.56;;;8.24;97.96
23363;BME280;11853;48.080;11.960;2023-04-01T04:14:31;93635.06;;;8.29;97.99
23363;BME280;11853;48.080;11.960;2023-04-01T04:16:57;93621.91;;;8.21;98.23
23363;BME280;11853;48.080;11.960;2023-04-01T04:19:23;93628.97;;;8.21;97.75
23363;BME280;11853;48.080;11.960;2023-04-01T04:21:49;93635.75;;;8.23;99.02
23363;BME280;11853;48.080;11.960;2023-04-01T04:24:14;93634.44;;;8.19;99.39
23363;BME280;11853;48.080;11.960;2023-04-01T04:26:40;93631.97;;;8.18;99.21
23363;BME280;11853;48.080;11.960;2023-04-01T04:29:06;93631.13;;;8.17;99.68
23363;BME280;11853;48.080;11.960;2023-04-01T04:31:31;93636.09;;;8.20;98.65
23363;BME280;11853;48.080;11.960;2023-04-01T04:33:59;93631.00;;;8.10;99.21
23363;BME280;11853;48.080;11.960;2023-04-01T04:36:25;93631.50;;;8.06;99.72
23363;BME280;11853;48.080;11.960;2023-04-01T04:38:50;93633.47;;;8.04;99.17
23363;BME280;11853;48.080;11.960;2023-04-01T04:41:17;93634.81;;;8.00;100.00
23363;BME280;11853;48.080;11.960;2023-04-01T04:43:50;93647.84;;;8.01;99.76
23363;BME280;11853;48.080;11.960;2023-04-01T04:46:16;93644.22;;;8.02;100.00
23363;BME280;11853;48.080;11.960;2023-04-01T04:48:41;93647.53;;;8.04;99.87
23363;BME280;11853;48.080;11.960;2023-04-01T04:51:15;93642.25;;;8.04;100.00
23363;BME280;11853;48.080;11.960;2023-04-01T04:53:41;93636.63;;;8.07;100.00
23363;BME280;11853;48.080;11.960;2023-04-01T04:56:07;93645.50;;;8.06;100.00
23363;BME280;11853;48.080;11.960;2023-04-01T04:58:33;93647.34;;;8.06;100.00
23363;BME280;11853;48.080;11.960;2023-04-01T05:00:59;93648.34;;;8.05;100.00
23363;BME280;11853;48.080;11.960;2023-04-01T05:03:24;93650.16;;;8.04;100.00
23363;BME280;11853;48.080;11.960;2023-04-01T05:05:52;93648.31;;;8.13;99.89
23363;BME280;11853;48.080;11.960;2023-04-01T05:08:18;93651.66;;;8.07;99.86
23363;BME280;11853;48.080;11.960;2023-04-01T05:10:44;93659.56;;;8.07;100.00
23363;BME280;11853;48.080;11.960;2023-04-01T05:13:10;93651.13;;;8.11;100.00
23363;BME280;11853;48.080;11.960;2023-04-01T05:15:35;93653.75;;;8.11;99.68
23363;BME280;11853;48.080;11.960;2023-04-01T05:18:02;93656.94;;;8.07;100.00
23363;BME280;11853;48.080;11.960;2023-04-01T05:20:28;93649.00;;;8.07;100.00
23363;BME280;11853;48.080;11.960;2023-04-01T05:22:57;93657.91;;;8.14;100.00
23363;BME280;11853;48.080;11.960;2023-04-01T05:25:23;93653.44;;;8.15;100.00
23363;BME280;11853;48.080;11.960;2023-04-01T05:27:49;93649.63;;;8.25;99.86
23363;BME280;11853;48.080;11.960;2023-04-01T05:30:15;93645.00;;;8.19;99.46
23363;BME280;11853;48.080;11.960;2023-04-01T05:32:40;93645.34;;;8.16;99.84
23363;BME280;11853;48.080;11.960;2023-04-01T05:35:06;93653.59;;;8.21;99.40
23363;BME280;11853;48.080;11.960;2023-04-01T05:37:34;93651.94;;;8.20;99.47
23363;BME280;11853;48.080;11.960;2023-04-01T05:39:59;93660.53;;;8.22;99.54
23363;BME280;11853;48.080;11.960;2023-04-01T05:42:25;93648.94;;;8.31;98.37
23363;BME280;11853;48.080;11.960;2023-04-01T05:44:51;93658.69;;;8.31;98.70
23363;BME280;11853;48.080;11.960;2023-04-01T05:47:16;93658.03;;;8.29;98.66
23363;BME280;11853;48.080;11.960;2023-04-01T05:49:42;93661.66;;;8.36;99.90
23363;BME280;11853;48.080;11.960;2023-04-01T05:52:07;93655.06;;;8.40;99.14
23363;BME280;11853;48.080;11.960;2023-04-01T05:54:33;93664.78;;;8.48;96.91
23363;BME280;11853;48.080;11.960;2023-04-01T05:56:59;93660.13;;;8.58;97.25
23363;BME280;11853;48.080;11.960;2023-04-01T05:59:24;93658.09;;;8.76;96.45
23363;BME280;11853;48.080;11.960;2023-04-01T06:01:50;93659.66;;;8.94;94.99
23363;BME280;11853;48.080;11.960;2023-04-01T06:04:17;93657.78;;;9.11;94.50
23363;BME280;11853;48.080;11.960;2023-04-01T06:06:43;93662.69;;;9.45;93.19
23363;BME280;11853;48.080;11.960;2023-04-01T06:09:17;93661.56;;;9.85;91.56
23363;BME280;11853;48.080;11.960;2023-04-01T06:14:49;93664.75;;;10.56;86.49
23363;BME280;11853;48.080;11.960;2023-04-01T06:48:11;93663.16;;;12.78;70.28
23363;BME280;11853;48.080;11.960;2023-04-01T06:50:55;93653.50;;;12.43;72.08
23363;BME280;11853;48.080;11.960;2023-04-01T06:53:35;93656.28;;;12.91;72.69
23363;BME280;11853;48.080;11.960;2023-04-01T06:56:10;93658.31;;;13.30;70.74
23363;BME280;11853;48.080;11.960;2023-04-01T06:59:08;93652.69;;;13.66;69.62
23363;BME280;11853;48.080;11.960;2023-04-01T07:01:40;93656.00;;;13.82;68.48
23363;BME280;11853;48.080;11.960;2023-04-01T07:04:20;93655.00;;;13.96;65.83
23363;BME280;11853;48.080;11.960;2023-04-01T07:09:54;93659.13;;;14.12;68.90
23363;BME280;11853;48.080;11.960;2023-04-01T07:12:36;93648.47;;;14.32;64.43
23363;BME280;11853;48.080;11.960;2023-04-01T07:15:59;93668.19;;;14.64;66.36
23363;BME280;11853;48.080;11.960;2023-04-01T07:18:58;93650.47;;;15.03;62.83
23363;BME280;11853;48.080;11.960;2023-04-01T07:21:04;93656.16;;;15.20;62.25
23363;BME280;11853;48.080;11.960;2023-04-01T07:23:42;93667.00;;;15.38;62.20
23363;BME280;11853;48.080;11.960;2023-04-01T07:26:21;93657.91;;;14.81;63.34
23363;BME280;11853;48.080;11.960;2023-04-01T07:28:48;93676.41;;;14.56;63.08
23363;BME280;11853;48.080;11.960;2023-04-01T07:31:22;93664.84;;;13.89;63.45
23363;BME280;11853;48.080;11.960;2023-04-01T07:37:06;93661.16;;;12.87;69.91
23363;BME280;11853;48.080;11.960;2023-04-01T07:40:01;93671.63;;;12.60;70.22
23363;BME280;11853;48.080;11.960;2023-04-01T07:48:25;93675.22;;;11.60;73.00
23363;BME280;11853;48.080;11.960;2023-04-01T07:53:38;93679.25;;;11.71;73.87
23363;BME280;11853;48.080;11.960;2023-04-01T07:56:14;93683.03;;;11.83;74.79
23363;BME280;11853;48.080;11.960;2023-04-01T08:12:20;93657.84;;;11.79;73.04
23363;BME280;11853;48.080;11.960;2023-04-01T08:14:54;93680.88;;;11.72;73.67
23363;BME280;11853;48.080;11.960;2023-04-01T08:20:39;93686.50;;;12.48;97.70
23363;BME280;11853;48.080;11.960;2023-04-01T08:26:14;93675.53;;;12.08;74.05
23363;BME280;11853;48.080;11.960;2023-04-01T08:33:44;93664.97;;;11.93;75.67
23363;BME280;11853;48.080;11.960;2023-04-01T08:36:19;93691.34;;;11.95;76.01
23363;BME280;11853;48.080;11.960;2023-04-01T08:38:59;93666.72;;;11.86;76.59
23363;BME280;11853;48.080;11.960;2023-04-01T08:41:40;93670.69;;;11.90;75.17
23363;BME280;11853;48.080;11.960;2023-04-01T08:52:49;93655.97;;;12.44;70.78
23363;BME280;11853;48.080;11.960;2023-04-01T08:55:38;93655.53;;;13.10;70.65
23363;BME280;11853;48.080;11.960;2023-04-01T09:04:05;93654.56;;;13.24;66.76
23363;BME280;11853;48.080;11.960;2023-04-01T09:12:31;93634.97;;;12.91;68.99
23363;BME280;11853;48.080;11.960;2023-04-01T09:29:04;93645.84;;;12.61;66.52
23363;BME280;11853;48.080;11.960;2023-04-01T09:48:24;93632.81;;;13.75;63.97
23363;BME280;11853;48.080;11.960;2023-04-01T09:51:17;93618.25;;;13.58;64.72
23363;BME280;11853;48.080;11.960;2023-04-01T10:13:51;93616.81;;;12.66;67.43
23363;BME280;11853;48.080;11.960;2023-04-01T10:25:04;93600.38;;;12.56;67.33
23363;BME280;11853;48.080;11.960;2023-04-01T10:44:18;93600.47;;;12.69;68.02
23363;BME280;11853;48.080;11.960;2023-04-01T10:58:25;93594.91;;;12.64;67.58
23363;BME280;11853;48.080;11.960;2023-04-01T11:01:22;93592.41;;;12.56;67.88
23363;BME280;11853;48.080;11.960;2023-04-01T11:12:36;93595.44;;;12.53;68.74
23363;BME280;11853;48.080;11.960;2023-04-01T11:40:11;93625.72;;;11.95;73.49
23363;BME280;11853;48.080;11.960;2023-04-01T11:43:08;93624.66;;;11.90;75.46
23363;BME280;11853;48.080;11.960;2023-04-01T11:45:53;93623.19;;;11.87;74.98
23363;BME280;11853;48.080;11.960;2023-04-01T11:54:14;93636.41;;;11.81;76.34
23363;BME280;11853;48.080;11.960;2023-04-01T12:02:16;93628.94;;;11.69;76.56
23363;BME280;11853;48.080;11.960;2023-04-01T12:05:16;93639.28;;;11.64;76.49
23363;BME280;11853;48.080;11.960;2023-04-01T12:10:44;93640.38;;;11.70;78.91
23363;BME280;11853;48.080;11.960;2023-04-01T12:13:50;93643.41;;;11.67;80.10
23363;BME280;11853;48.080;11.960;2023-04-01T12:19:32;93674.25;;;11.46;86.68
23363;BME280;11853;48.080;11.960;2023-04-01T12:22:17;93683.38;;;11.22;90.89
23363;BME280;11853;48.080;11.960;2023-04-01T12:51:53;93690.91;;;10.45;95.29
23363;BME280;11853;48.080;11.960;2023-04-01T13:00:33;93699.22;;;10.56;97.00
23363;BME280;11853;48.080;11.960;2023-04-01T13:06:16;93692.44;;;10.39;98.01
23363;BME280;11853;48.080;11.960;2023-04-01T13:16:48;93704.09;;;10.30;99.32
23363;BME280;11853;48.080;11.960;2023-04-01T13:25:14;93690.69;;;10.08;100.00
23363;BME280;11853;48.080;11.960;2023-04-01T13:27:56;93695.03;;;10.01;100.00
23363;BME280;11853;48.080;11.960;2023-04-01T13:30:39;93702.53;;;9.98;100.00
23363;BME280;11853;48.080;11.960;2023-04-01T13:33:30;93699.78;;;9.91;100.00
23363;BME280;11853;48.080;11.960;2023-04-01T13:36:23;93700.66;;;9.83;100.00
23363;BME280;11853;48.080;11.960;2023-04-01T13:39:06;93693.16;;;9.87;100.00
23363;BME280;11853;48.080;11.960;2023-04-01T13:44:43;93696.38;;;9.82;100.00
23363;BME280;11853;48.080;11.960;2023-04-01T13:47:31;93694.47;;;9.91;100.00
23363;BME280;11853;48.080;11.960;2023-04-01T13:55:44;93703.28;;;9.83;100.00
23363;BME280;11853;48.080;11.960;2023-04-01T14:00:45;93706.97;;;9.82;100.00
23363;BME280;11853;48.080;11.960;2023-04-01T14:06:05;93705.66;;;9.78;100.00
23363;BME280;11853;48.080;11.960;2023-04-01T14:12:04;93700.25;;;9.72;100.00
23363;BME280;11853;48.080;11.960;2023-04-01T14:20:00;93703.41;;;9.67;100.00
23363;BME280;11853;48.080;11.960;2023-04-01T14:28:15;93709.53;;;9.67;100.00
23363;BME280;11853;48.080;11.960;2023-04-01T14:33:46;93703.91;;;9.70;100.00
23363;BME280;11853;48.080;11.960;2023-04-01T14:39:24;93711.13;;;9.77;100.00
23363;BME280;11853;48.080;11.960;2023-04-01T14:42:09;93715.78;;;9.75;100.00
23363;BME280;11853;48.080;11.960;2023-04-01T14:45:05;93715.72;;;9.83;100.00
23363;BME280;11853;48.080;11.960;2023-04-01T14:47:51;93709.66;;;9.74;100.00
23363;BME280;11853;48.080;11.960;2023-04-01T14:50:53;93707.66;;;9.76;100.00
23363;BME280;11853;48.080;11.960;2023-04-01T14:55:50;93711.19;;;9.68;100.00
23363;BME280;11853;48.080;11.960;2023-04-01T14:58:19;93723.97;;;9.65;100.00
23363;BME280;11853;48.080;11.960;2023-04-01T15:00:48;93721.44;;;9.72;100.00
23363;BME280;11853;48.080;11.960;2023-04-01T15:03:26;93722.56;;;9.77;100.00
23363;BME280;11853;48.080;11.960;2023-04-01T15:06:30;93723.41;;;9.69;100.00
23363;BME280;11853;48.080;11.960;2023-04-01T15:20:00;93722.38;;;9.79;100.00
23363;BME280;11853;48.080;11.960;2023-04-01T15:25:42;93721.53;;;9.78;100.00
23363;BME280;11853;48.080;11.960;2023-04-01T15:28:28;93721.31;;;9.65;100.00
23363;BME280;11853;48.080;11.960;2023-04-01T15:34:00;93722.13;;;9.65;100.00
23363;BME280;11853;48.080;11.960;2023-04-01T15:36:41;93712.56;;;9.64;100.00
23363;BME280;11853;48.080;11.960;2023-04-01T15:45:01;93716.44;;;9.77;100.00
23363;BME280;11853;48.080;11.960;2023-04-01T15:47:37;93716.38;;;9.85;100.00
23363;BME280;11853;48.080;11.960;2023-04-01T15:55:30;93730.13;;;9.80;100.00
23363;BME280;11853;48.080;11.960;2023-04-01T15:58:15;93726.31;;;9.83;100.00
23363;BME280;11853;48.080;11.960;2023-04-01T16:12:04;93736.66;;;9.92;100.00
23363;BME280;11853;48.080;11.960;2023-04-01T16:20:20;93728.91;;;9.91;97.01
23363;BME280;11853;48.080;11.960;2023-04-01T16:22:54;93738.50;;;9.92;95.61
23363;BME280;11853;48.080;11.960;2023-04-01T16:25:33;93740.50;;;9.90;95.59
23363;BME280;11853;48.080;11.960;2023-04-01T16:34:01;93750.94;;;9.91;95.72
23363;BME280;11853;48.080;11.960;2023-04-01T16:36:41;93749.09;;;9.92;95.52
23363;BME280;11853;48.080;11.960;2023-04-01T16:39:19;93745.47;;;9.93;96.50
23363;BME280;11853;48.080;11.960;2023-04-01T16:41:52;93749.28;;;9.90;95.41
23363;BME280;11853;48.080;11.960;2023-04-01T16:44:26;93750.94;;;9.91;95.17
23363;BME280;11853;48.080;11.960;2023-04-01T16:47:06;93742.16;;;9.91;95.27
23363;BME280;11853;48.080;11.960;2023-04-01T16:49:42;93738.03;;;9.88;96.06
23363;BME280;11853;48.080;11.960;2023-04-01T16:54:58;93744.50;;;9.86;93.74
23363;BME280;11853;48.080;11.960;2023-04-01T17:02:49;93754.63;;;9.82;95.13
23363;BME280;11853;48.080;11.960;2023-04-01T17:05:18;93771.34;;;9.83;96.15
23363;BME280;11853;48.080;11.960;2023-04-01T17:08:09;93765.09;;;9.76;96.94
23363;BME280;11853;48.080;11.960;2023-04-01T17:10:53;93765.38;;;9.81;95.61
23363;BME280;11853;48.080;11.960;2023-04-01T17:13:34;93764.75;;;9.79;94.99
23363;BME280;11853;48.080;11.960;2023-04-01T17:18:59;93775.56;;;9.69;95.70
23363;BME280;11853;48.080;11.960;2023-04-01T17:27:18;93785.03;;;9.63;92.99
23363;BME280;11853;48.080;11.960;2023-04-01T17:32:52;93791.69;;;9.59;91.72
23363;BME280;11853;48.080;11.960;2023-04-01T17:35:32;93785.06;;;9.55;92.60
23363;BME280;11853;48.080;11.960;2023-04-01T17:38:08;93797.16;;;9.50;92.26
23363;BME280;11853;48.080;11.960;2023-04-01T17:51:39;93799.44;;;9.61;90.74
23363;BME280;11853;48.080;11.960;2023-04-01T17:57:21;93804.59;;;9.54;89.89
23363;BME280;11853;48.080;11.960;2023-04-01T18:00:02;93805.25;;;9.56;89.26
23363;BME280;11853;48.080;11.960;2023-04-01T18:02:51;93810.22;;;9.59;89.43
23363;BME280;11853;48.080;11.960;2023-04-01T18:08:23;93806.59;;;9.52;88.58
23363;BME280;11853;48.080;11.960;2023-04-01T18:11:08;93806.25;;;9.55;88.85
23363;BME280;11853;48.080;11.960;2023-04-01T18:19:34;93818.16;;;9.59;88.39
23363;BME280;11853;48.080;11.960;2023-04-01T18:25:38;93822.81;;;9.49;88.03
23363;BME280;11853;48.080;11.960;2023-04-01T18:30:34;93820.50;;;9.46;88.85
23363;BME280;11853;48.080;11.960;2023-04-01T18:38:59;93831.91;;;9.55;87.05
23363;BME280;11853;48.080;11.960;2023-04-01T18:41:40;93830.75;;;9.49;87.55
23363;BME280;11853;48.080;11.960;2023-04-01T18:47:27;93829.16;;;9.40;89.42
23363;BME280;11853;48.080;11.960;2023-04-01T18:52:44;93845.69;;;9.42;89.13
23363;BME280;11853;48.080;11.960;2023-04-01T18:57:58;93845.19;;;9.38;88.78
23363;BME280;11853;48.080;11.960;2023-04-01T19:00:39;93853.34;;;9.29;89.68
23363;BME280;11853;48.080;11.960;2023-04-01T19:03:25;93852.03;;;9.24;89.55
23363;BME280;11853;48.080;11.960;2023-04-01T19:06:00;93860.59;;;9.27;90.15
23363;BME280;11853;48.080;11.960;2023-04-01T19:08:34;93853.34;;;9.29;90.36
23363;BME280;11853;48.080;11.960;2023-04-01T19:14:07;93866.25;;;9.23;90.44
23363;BME280;11853;48.080;11.960;2023-04-01T19:17:36;93853.00;;;9.23;91.03
23363;BME280;11853;48.080;11.960;2023-04-01T19:20:39;93862.28;;;9.19;91.12
23363;BME280;11853;48.080;11.960;2023-04-01T19:25:49;93870.72;;;9.23;92.10
23363;BME280;11853;48.080;11.960;2023-04-01T19:28:56;93873.84;;;9.18;93.50
23363;BME280;11853;48.080;11.960;2023-04-01T19:37:24;93877.50;;;9.25;94.37
23363;BME280;11853;48.080;11.960;2023-04-01T19:42:35;93879.31;;;9.25;93.55
23363;BME280;11853;48.080;11.960;2023-04-01T19:45:20;93877.50;;;9.17;94.30
23363;BME280;11853;48.080;11.960;2023-04-01T19:48:00;93878.50;;;9.24;94.40
23363;BME280;11853;48.080;11.960;2023-04-01T19:50:49;93880.81;;;9.28;93.98
23363;BME280;11853;48.080;11.960;2023-04-01T19:56:22;93892.69;;;9.23;93.79
23363;BME280;11853;48.080;11.960;2023-04-01T20:04:48;93899.81;;;9.23;93.79
23363;BME280;11853;48.080;11.960;2023-04-01T20:07:16;93898.34;;;9.20;93.81
23363;BME280;11853;48.080;11.960;2023-04-01T20:12:45;93913.06;;;9.23;93.17
23363;BME280;11853;48.080;11.960;2023-04-01T20:18:01;93912.25;;;9.14;93.46
23363;BME280;11853;48.080;11.960;2023-04-01T20:20:28;93909.09;;;9.11;92.61
23363;BME280;11853;48.080;11.960;2023-04-01T20:26:25;93911.56;;;9.12;93.39
23363;BME280;11853;48.080;11.960;2023-04-01T20:38:30;93909.44;;;8.99;94.11
23363;BME280;11853;48.080;11.960;2023-04-01T20:41:27;93906.94;;;8.98;92.49
23363;BME280;11853;48.080;11.960;2023-04-01T20:52:07;93917.38;;;8.91;93.05
23363;BME280;11853;48.080;11.960;2023-04-01T20:54:54;93923.00;;;8.96;93.92
23363;BME280;11853;48.080;11.960;2023-04-01T20:57:25;93917.53;;;8.98;93.76
23363;BME280;11853;48.080;11.960;2023-04-01T21:00:26;93911.09;;;8.92;93.53
23363;BME280;11853;48.080;11.960;2023-04-01T21:06:13;93916.91;;;8.96;93.33
23363;BME280;11853;48.080;11.960;2023-04-01T21:27:39;93937.38;;;9.02;94.05
23363;BME280;11853;48.080;11.960;2023-04-01T21:30:32;93937.72;;;8.99;94.68
23363;BME280;11853;48.080;11.960;2023-04-01T21:39:13;93943.31;;;9.04;94.77
23363;BME280;11853;48.080;11.960;2023-04-01T21:42:00;93943.03;;;9.07;93.86
23363;BME280;11853;48.080;11.960;2023-04-01T21:50:32;93955.72;;;9.03;93.65
23363;BME280;11853;48.080;11.960;2023-04-01T21:56:34;93953.91;;;9.04;93.37
23363;BME280;11853;48.080;11.960;2023-04-01T22:07:58;93955.56;;;8.97;93.91
23363;BME280;11853;48.080;11.960;2023-04-01T22:12:59;93961.19;;;8.94;92.84
23363;BME280;11853;48.080;11.960;2023-04-01T22:18:33;93970.13;;;8.93;92.81
23363;BME280;11853;48.080;11.960;2023-04-01T22:21:20;93966.47;;;8.94;93.17
23363;BME280;11853;48.080;11.960;2023-04-01T22:24:13;93973.91;;;8.98;92.90
23363;BME280;11853;48.080;11.960;2023-04-01T22:26:59;93973.91;;;8.98;93.01
23363;BME280;11853;48.080;11.960;2023-04-01T22:29:34;93969.81;;;8.96;93.58
23363;BME280;11853;48.080;11.960;2023-04-01T22:32:09;93970.28;;;8.91;94.09
23363;BME280;11853;48.080;11.960;2023-04-01T22:40:23;93974.06;;;8.89;93.91